• Join FlightAware (Why Join?)
  • Login
  • US Flag 
04:46PM EST


 

Airport Tracker/Info


-or-


 

Live Flight TrackerFlight Track Log ✈ N120MP ✈ 21-Mar-2014 ✈ KSBA - KMYF

Flight Track Log - Related Links

Times and Time Zones

All times are in EDT time to prevent confusion due to time zone crossing. See the N120MP flight status page for this flight to view local times or setup timezone preferences in your user account.

Time Position Orientation Groundspeed Altitude Reporting Facility
EDT Latitude Longitude Course Direction KTS MPH feet Rate Location/Type
03:09PM 34.4122 -119.8372 162° South 102 117 400  Level Los Angeles Center
03:10PM 34.3908 -119.8286 162° South 101 116 1,300 900 Climbing Los Angeles Center
03:10PM 34.3847 -119.8253 156° South 107 123 1,500 780 Climbing Los Angeles Center
03:11PM 34.3547 -119.8128 161° South 109 125 2,500 960 Climbing Los Angeles Center
03:12PM 34.3242 -119.8017 163° South 112 129 3,500 960 Climbing Los Angeles Center
03:13PM 34.2892 -119.7833 157° South 112 129 4,600 960 Climbing Los Angeles Center
03:14PM 34.2822 -119.7469 103° East 124 143 5,500 840 Climbing Los Angeles Center
03:15PM 34.2856 -119.7067 84° East 121 139 6,400 840 Climbing Los Angeles Center
03:16PM 34.2883 -119.6689 85° East 118 136 7,300 780 Climbing Los Angeles Center
03:18PM 34.2761 -119.6350 114° Southeast 117 135 8,100 780 Climbing Los Angeles Center
03:19PM 34.2514 -119.5950 127° Southeast 124 143 9,000 720 Climbing Los Angeles Center
03:20PM 34.2322 -119.5611 124° Southeast 124 143 9,700 540 Climbing Los Angeles Center
03:21PM 34.2131 -119.5236 122° Southeast 125 144 10,200 480 Climbing Los Angeles Center
03:22PM 34.1892 -119.4850 127° Southeast 140 161 10,800 480 Climbing Los Angeles Center
03:23PM 34.1656 -119.4467 127° Southeast 140 161 11,200 300 Climbing Los Angeles Center
03:24PM 34.1367 -119.3928 123° Southeast 158 182 11,500 120 Climbing Los Angeles Center
03:25PM 34.1100 -119.3436 123° Southeast 172 198 11,500  Level Los Angeles Center
03:26PM 34.0828 -119.2919 122° Southeast 178 205 11,500  Level Los Angeles Center
03:27PM 34.0553 -119.2425 124° Southeast 179 206 11,500  Level Los Angeles Center
03:28PM 34.0250 -119.1925 126° Southeast 181 208 11,500  Level Los Angeles Center
03:29PM 33.9961 -119.1428 125° Southeast 182 209 11,500  Level Los Angeles Center
03:30PM 33.9625 -119.0831 124° Southeast 181 208 11,500  Level Los Angeles Center
03:31PM 33.9344 -119.0342 125° Southeast 181 208 11,500  Level Los Angeles Center
03:32PM 33.9064 -118.9844 124° Southeast 181 208 11,500  Level Los Angeles Center
03:33PM 33.8775 -118.9358 126° Southeast 180 207 11,500  Level Los Angeles Center
03:34PM 33.8489 -118.8858 125° Southeast 180 207 11,500  Level Los Angeles Center
03:35PM 33.8144 -118.8261 125° Southeast 181 208 11,500  Level Los Angeles Center
03:36PM 33.7853 -118.7767 125° Southeast 181 208 11,500  Level Los Angeles Center
03:37PM 33.7564 -118.7261 124° Southeast 182 209 11,500  Level Los Angeles Center
03:38PM 33.7272 -118.6769 125° Southeast 182 209 11,500  Level Los Angeles Center
03:39PM 33.6981 -118.6272 125° Southeast 182 209 11,500  Level Los Angeles Center
03:40PM 33.6636 -118.5672 125° Southeast 182 209 11,500  Level Los Angeles Center
03:41PM 33.6344 -118.5183 126° Southeast 182 209 11,500  Level Los Angeles Center
03:42PM 33.6058 -118.4686 125° Southeast 182 209 11,500  Level Los Angeles Center
03:43PM 33.5761 -118.4194 126° Southeast 182 209 11,500  Level Los Angeles Center
03:44PM 33.5475 -118.3697 125° Southeast 182 209 11,500  Level Los Angeles Center
03:45PM 33.5128 -118.3103 125° Southeast 182 209 11,500  Level Los Angeles Center
03:47PM 33.4842 -118.2611 125° Southeast 182 209 11,500  Level Los Angeles Center
03:48PM 33.4517 -118.2067 126° Southeast 182 209 11,500  Level Los Angeles Center
03:49PM 33.4258 -118.1628 125° Southeast 182 209 11,500  Level Los Angeles Center
03:50PM 33.3975 -118.1133 124° Southeast 182 209 11,500  Level Los Angeles Center
03:51PM 33.3628 -118.0553 126° Southeast 182 209 11,500 -240 Level Los Angeles Center
03:52PM 33.3328 -118.0056 126° Southeast 182 209 11,100 -420 Descending Los Angeles Center
03:53PM 33.3022 -117.9522 124° Southeast 188 216 10,700 -300 Descending Los Angeles Center
03:54PM 33.2719 -117.9003 125° Southeast 192 221 10,500 -120 Descending Los Angeles Center
03:55PM 33.2428 -117.8489 124° Southeast 191 220 10,500  Level Los Angeles Center
03:56PM 33.2139 -117.8006 126° Southeast 184 212 10,500 -300 Level Los Angeles Center
03:57PM 33.1772 -117.7414 127° Southeast 184 212 10,000 -540 Descending Los Angeles Center
03:58PM 33.1447 -117.6875 126° Southeast 195 224 9,500 -480 Descending Los Angeles Center
03:59PM 33.1142 -117.6333 124° Southeast 198 228 9,100 -420 Descending Los Angeles Center
04:00PM 33.0817 -117.5822 127° Southeast 196 226 8,700 -420 Descending Los Angeles Center
04:01PM 33.0497 -117.5311 127° Southeast 196 226 8,300 -480 Descending Los Angeles Center
04:02PM 33.0039 -117.4778 136° Southeast 192 221 7,800 -780 Descending Los Angeles Center
04:03PM 32.9636 -117.4331 137° Southeast 194 223 6,700 -1,140 Descending Los Angeles Center
04:04PM 32.9203 -117.3875 139° Southeast 203 234 5,500 -1,200 Descending Los Angeles Center
04:05PM 32.9000 -117.3500 123° Southeast 195 224 4,700 -840 Descending Southern California TRACON
04:06PM 32.8422 -117.2881 138° Southeast 196 226 3,800 -660 Descending Los Angeles Center